Time;durP1;ratioP1;P1;durP2;ratioP2;P2;SDS_P1;SDS_P2;PMS_P1;PMS_P2;Temp;Humidity;BMP_temperature;BMP_pressure;BME280_temperature;BME280_humidity;BME280_pressure;Samples;Min_cycle;Max_cycle;Signal;HPM_P1;HPM_P2
2023/10/08 00:01:59;;;;;;;4.28;3.00;;;20.80;59.00;;;;;;5022851;28;19929;-50
2023/10/08 00:04:37;;;;;;;4.07;2.97;;;20.80;59.10;;;;;;5017355;28;20052;-53
2023/10/08 00:07:15;;;;;;;7.15;3.20;;;20.70;59.30;;;;;;5024832;28;20121;-50
2023/10/08 00:10:01;;;;;;;4.00;2.90;;;20.60;59.40;;;;;;5016644;28;20466;-53
2023/10/08 00:12:55;;;;;;;5.82;3.55;;;20.60;59.70;;;;;;5019562;28;20100;-52
2023/10/08 00:15:30;;;;;;;6.78;3.63;;;20.60;59.90;;;;;;5019779;28;20048;-50
2023/10/08 00:18:04;;;;;;;9.30;4.15;;;20.60;59.90;;;;;;5022824;28;20050;-50
2023/10/08 00:21:15;;;;;;;6.95;3.40;;;20.60;59.90;;;;;;5019755;28;20072;-52
2023/10/08 00:23:59;;;;;;;6.68;3.10;;;20.50;60.00;;;;;;5013287;28;20089;-51
2023/10/08 00:26:47;;;;;;;6.10;3.17;;;20.50;60.60;;;;;;5014691;28;20064;-51
2023/10/08 00:29:25;;;;;;;5.95;3.30;;;20.50;60.40;;;;;;5022996;28;20042;-52
2023/10/08 00:31:56;;;;;;;5.57;3.92;;;20.50;60.20;;;;;;5025935;28;20042;-52
2023/10/08 00:34:42;;;;;;;4.25;3.38;;;20.50;60.20;;;;;;5016998;28;20103;-52
2023/10/08 00:37:29;;;;;;;5.07;3.30;;;20.50;60.30;;;;;;5014165;28;20757;-52
2023/10/08 00:40:14;;;;;;;5.70;3.30;;;20.50;60.40;;;;;;5020229;28;20096;-50
2023/10/08 00:42:56;;;;;;;5.30;3.50;;;20.50;60.00;;;;;;5023614;28;20112;-52
2023/10/08 00:45:28;;;;;;;5.60;3.28;;;20.50;59.90;;;;;;5009469;28;20085;-50
2023/10/08 00:48:06;;;;;;;6.38;3.63;;;20.40;59.80;;;;;;5015487;28;20030;-52
2023/10/08 00:50:46;;;;;;;5.88;4.00;;;20.40;59.80;;;;;;5016368;28;20049;-53
2023/10/08 00:53:21;;;;;;;4.95;3.63;;;20.40;59.70;;;;;;5011745;28;20046;-53
2023/10/08 00:56:07;;;;;;;6.20;3.88;;;20.30;59.60;;;;;;5013863;28;20042;-53
2023/10/08 00:58:53;;;;;;;4.72;3.70;;;20.30;59.90;;;;;;5013064;28;20092;-51
2023/10/08 01:01:25;;;;;;;4.35;3.80;;;20.30;59.70;;;;;;5010879;28;20459;-49
2023/10/08 01:03:58;;;;;;;5.35;3.50;;;20.30;59.80;;;;;;5013143;28;20081;-53
2023/10/08 01:06:34;;;;;;;5.85;3.50;;;20.20;59.90;;;;;;5016379;28;20511;-51
2023/10/08 01:09:22;;;;;;;4.38;3.22;;;20.20;60.00;;;;;;5016861;28;20037;-53
2023/10/08 01:15:19;;;;;;;4.05;3.35;;;20.10;60.10;;;;;;5018792;28;20069;-49
2023/10/08 01:18:01;;;;;;;6.80;3.70;;;20.00;59.80;;;;;;5022994;28;20061;-48
2023/10/08 01:20:33;;;;;;;;;;;20.00;59.90;;;;;;5020045;28;20050;-53
2023/10/08 01:23:13;;;;;;;8.73;3.60;;;20.00;59.70;;;;;;5017940;28;20028;-52
2023/10/08 01:26:10;;;;;;;5.55;3.00;;;20.00;59.90;;;;;;5015809;28;20562;-52
2023/10/08 01:28:43;;;;;;;7.82;3.72;;;19.90;59.80;;;;;;5019035;28;20596;-50
2023/10/08 01:31:25;;;;;;;;;;;19.80;60.00;;;;;;5024537;28;20044;-49
2023/10/08 01:34:08;;;;;;;;;;;;;;;;;;;;;
2023/10/08 01:36:38;;;;;;;5.43;3.88;;;19.80;60.00;;;;;;5017999;28;20057;-50
2023/10/08 01:39:15;;;;;;;5.90;3.72;;;19.80;60.30;;;;;;5017349;28;20115;-51
2023/10/08 01:41:58;;;;;;;;;;;;;;;;;;;;;
2023/10/08 01:44:39;;;;;;;7.22;3.65;;;19.70;60.60;;;;;;5015662;28;20072;-53
2023/10/08 01:47:15;;;;;;;6.50;4.07;;;19.60;60.60;;;;;;5018469;28;20041;-50
2023/10/08 01:50:05;;;;;;;8.43;3.78;;;19.60;61.00;;;;;;5025931;28;20041;-52
2023/10/08 01:53:01;;;;;;;3.85;3.13;;;19.60;61.00;;;;;;5017635;28;20045;-53
2023/10/08 01:58:38;;;;;;;5.18;3.25;;;19.50;61.10;;;;;;5016110;28;20118;-52
2023/10/08 02:01:13;;;;;;;8.05;4.18;;;19.50;61.10;;;;;;5021277;28;20046;-49
2023/10/08 02:03:52;;;;;;;8.48;3.72;;;19.50;61.10;;;;;;5020044;28;20038;-53
2023/10/08 02:06:30;;;;;;;7.73;3.93;;;19.40;61.20;;;;;;5021966;28;20131;-50
2023/10/08 02:09:07;;;;;;;5.30;3.60;;;19.40;61.10;;;;;;5024546;28;20140;-53
2023/10/08 02:11:55;;;;;;;4.72;3.40;;;19.40;61.20;;;;;;5025515;28;21000;-50
2023/10/08 02:14:35;;;;;;;7.50;3.43;;;19.40;61.20;;;;;;5014655;28;20038;-53
2023/10/08 02:17:10;;;;;;;4.18;2.97;;;19.40;61.30;;;;;;5018917;28;20034;-53
2023/10/08 02:19:41;;;;;;;5.28;3.45;;;19.40;61.40;;;;;;5024864;28;20223;-51
2023/10/08 02:22:19;;;;;;;5.40;3.60;;;19.30;61.20;;;;;;5020294;28;20080;-51
2023/10/08 02:25:12;;;;;;;5.15;3.15;;;19.40;61.30;;;;;;5018532;28;20038;-51
2023/10/08 02:27:51;;;;;;;8.07;4.03;;;19.30;61.10;;;;;;5022611;28;20462;-50
2023/10/08 02:30:27;;;;;;;5.28;3.67;;;19.30;61.30;;;;;;5014043;28;20050;-53
2023/10/08 02:33:13;;;;;;;5.65;3.50;;;19.40;61.30;;;;;;5018391;28;20060;-52
2023/10/08 02:35:51;;;;;;;4.85;3.40;;;19.40;61.20;;;;;;5021038;28;20033;-53
2023/10/08 02:38:28;;;;;;;5.07;3.70;;;19.40;61.00;;;;;;5020052;28;20060;-50
2023/10/08 02:41:16;;;;;;;5.43;3.35;;;19.40;61.00;;;;;;5020435;28;20033;-53
2023/10/08 02:43:48;;;;;;;4.55;3.28;;;19.40;61.10;;;;;;5022781;28;20038;-52
2023/10/08 02:46:26;;;;;;;4.75;3.88;;;19.40;60.80;;;;;;5016981;28;20060;-52
2023/10/08 02:49:00;;;;;;;7.05;3.78;;;19.40;60.80;;;;;;5016583;28;20624;-53
2023/10/08 02:51:41;;;;;;;6.35;4.07;;;19.40;60.70;;;;;;5020698;28;20140;-53
2023/10/08 02:54:24;;;;;;;6.88;3.33;;;19.40;60.60;;;;;;5015204;28;20050;-52
2023/10/08 02:57:03;;;;;;;4.80;3.58;;;19.40;60.50;;;;;;5016346;28;20076;-49
2023/10/08 02:59:42;;;;;;;6.97;4.13;;;19.40;60.40;;;;;;5015787;28;20471;-53
2023/10/08 03:02:48;;;;;;;;;;;19.40;60.30;;;;;;5021023;28;20074;-48
2023/10/08 03:05:31;;;;;;;4.95;3.40;;;19.50;60.10;;;;;;5017705;28;19922;-51
2023/10/08 03:08:12;;;;;;;5.95;2.78;;;19.40;60.00;;;;;;5024810;28;20053;-53
2023/10/08 03:10:41;;;;;;;5.60;3.05;;;19.40;60.00;;;;;;5014053;28;20038;-50
2023/10/08 03:13:26;;;;;;;9.52;4.57;;;19.40;60.00;;;;;;5018961;28;20064;-52
2023/10/08 03:16:14;;;;;;;6.13;3.15;;;19.40;60.00;;;;;;5016196;28;20039;-52
2023/10/08 03:18:50;;;;;;;6.10;3.50;;;19.40;59.80;;;;;;5014674;28;20073;-54
2023/10/08 03:24:29;;;;;;;4.10;2.97;;;19.30;59.80;;;;;;5026860;28;20049;-52
2023/10/08 03:27:12;;;;;;;3.65;2.78;;;19.30;59.70;;;;;;5021849;28;20068;-52
2023/10/08 03:29:45;;;;;;;5.53;2.97;;;19.30;59.70;;;;;;5018130;28;20091;-51
2023/10/08 03:32:27;;;;;;;4.30;2.58;;;19.20;59.70;;;;;;5020483;28;20507;-51
2023/10/08 03:35:00;;;;;;;4.82;3.15;;;19.20;59.70;;;;;;5026991;28;20049;-52
2023/10/08 03:37:50;;;;;;;5.45;3.28;;;19.20;59.70;;;;;;5017811;28;20037;-49
2023/10/08 03:40:42;;;;;;;6.05;3.17;;;19.20;59.70;;;;;;5012944;28;20117;-53
2023/10/08 03:43:23;;;;;;;5.32;3.17;;;19.20;59.70;;;;;;5019699;28;20038;-52
2023/10/08 03:45:59;;;;;;;4.53;3.00;;;19.20;59.70;;;;;;5011241;28;20042;-52
2023/10/08 03:48:37;;;;;;;7.17;4.10;;;19.20;59.70;;;;;;5013583;28;20044;-53
2023/10/08 03:51:11;;;;;;;6.15;3.92;;;19.20;59.70;;;;;;5014822;28;20053;-50
2023/10/08 03:56:45;;;;;;;6.10;3.30;;;19.20;59.70;;;;;;5014782;28;20049;-50
2023/10/08 03:59:30;;;;;;;4.82;3.45;;;19.20;59.70;;;;;;5013586;28;20470;-52
2023/10/08 04:02:22;;;;;;;5.53;3.47;;;19.20;59.60;;;;;;5017528;28;20045;-51
2023/10/08 04:04:58;;;;;;;6.63;3.92;;;19.20;59.60;;;;;;5013429;28;20224;-50
2023/10/08 04:12:50;;;;;;;5.03;3.22;;;19.10;59.70;;;;;;5015622;28;20440;-50
2023/10/08 04:15:18;;;;;;;5.57;3.70;;;19.10;59.70;;;;;;5020823;28;20042;-53
2023/10/08 04:18:20;;;;;;;6.18;3.75;;;19.10;59.60;;;;;;5019996;28;20042;-53
2023/10/08 04:21:04;;;;;;;3.20;2.75;;;19.10;59.80;;;;;;5023271;28;20040;-53
2023/10/08 04:23:38;;;;;;;4.88;3.50;;;19.00;59.60;;;;;;5020935;28;20103;-53
2023/10/08 04:26:22;;;;;;;5.88;3.40;;;19.00;59.60;;;;;;5017335;28;20123;-53
2023/10/08 04:29:02;;;;;;;5.65;3.58;;;19.00;59.60;;;;;;5022165;28;20060;-51
2023/10/08 04:34:45;;;;;;;5.38;3.50;;;19.00;59.60;;;;;;5012989;28;20088;-50
2023/10/08 04:37:21;;;;;;;6.65;3.50;;;19.00;59.60;;;;;;5018467;28;20104;-53
2023/10/08 04:40:16;;;;;;;5.67;3.27;;;19.00;59.60;;;;;;5019004;28;20636;-52
2023/10/08 04:42:47;;;;;;;5.47;3.22;;;19.00;59.60;;;;;;5017421;28;20818;-50
2023/10/08 04:45:33;;;;;;;3.88;2.97;;;18.90;59.50;;;;;;5017864;28;20099;-50
2023/10/08 04:48:19;;;;;;;7.60;3.22;;;18.90;59.60;;;;;;5013895;28;20092;-49
2023/10/08 04:50:58;;;;;;;4.35;3.20;;;18.90;59.50;;;;;;5010512;28;20042;-53
2023/10/08 04:53:45;;;;;;;5.10;3.17;;;18.90;59.60;;;;;;5021332;28;20077;-53
2023/10/08 04:56:23;;;;;;;5.47;3.47;;;18.90;59.60;;;;;;5011777;28;20044;-52
2023/10/08 04:58:51;;;;;;;4.93;3.22;;;18.80;59.50;;;;;;5012806;28;20038;-52
2023/10/08 05:01:38;;;;;;;4.35;3.15;;;18.80;59.60;;;;;;5016369;28;20537;-51
2023/10/08 05:04:23;;;;;;;5.32;3.53;;;18.80;59.70;;;;;;5020822;28;20046;-53
2023/10/08 05:07:03;;;;;;;4.32;2.88;;;18.80;59.70;;;;;;5017393;28;20133;-48
2023/10/08 05:09:51;;;;;;;5.60;3.65;;;18.80;59.80;;;;;;5024224;28;20092;-52
2023/10/08 05:20:44;;;;;;;4.85;3.47;;;18.60;60.00;;;;;;5023527;28;20129;-52
2023/10/08 05:34:42;;;;;;;4.23;2.77;;;18.50;60.70;;;;;;5027104;28;20129;-52
2023/10/08 05:37:31;;;;;;;6.00;3.60;;;18.50;60.50;;;;;;5016136;28;20479;-52
2023/10/08 05:40:20;;;;;;;5.85;3.67;;;18.40;60.60;;;;;;5015182;28;20069;-53
2023/10/08 05:43:01;;;;;;;4.13;3.22;;;18.40;60.80;;;;;;5016157;28;20060;-51
2023/10/08 05:45:34;;;;;;;6.32;3.70;;;18.40;60.80;;;;;;5020988;28;20050;-50
2023/10/08 05:48:27;;;;;;;6.22;3.55;;;18.40;60.90;;;;;;5023286;28;20512;-53
2023/10/08 05:51:33;;;;;;;3.78;3.20;;;18.40;61.40;;;;;;5018972;28;20054;-51
2023/10/08 06:05:32;;;;;;;5.10;3.58;;;18.30;62.50;;;;;;5024009;28;20049;-53
2023/10/08 06:08:12;;;;;;;4.88;3.60;;;18.20;62.30;;;;;;5020618;28;20091;-50
2023/10/08 06:10:56;;;;;;;5.47;3.38;;;18.20;62.20;;;;;;5015682;28;20132;-53
2023/10/08 06:13:44;;;;;;;6.40;3.45;;;18.20;62.20;;;;;;5023621;28;20057;-51
2023/10/08 06:16:41;;;;;;;7.15;3.75;;;18.20;62.40;;;;;;5023954;28;20200;-52
2023/10/08 06:19:16;;;;;;;6.35;3.65;;;18.20;62.10;;;;;;5019008;28;20132;-49
2023/10/08 06:22:00;;;;;;;13.30;4.57;;;18.20;62.00;;;;;;5019968;28;20046;-49
2023/10/08 06:24:46;;;;;;;7.65;3.97;;;18.30;62.10;;;;;;5017429;28;20121;-52
2023/10/08 06:27:28;;;;;;;5.63;3.20;;;18.30;62.10;;;;;;5027369;28;20124;-51
2023/10/08 06:29:55;;;;;;;4.38;3.75;;;18.30;62.00;;;;;;5020131;28;20046;-50
2023/10/08 06:32:31;;;;;;;5.55;3.47;;;18.30;61.90;;;;;;5024974;28;20080;-49
2023/10/08 06:35:18;;;;;;;5.95;3.40;;;18.30;62.00;;;;;;5024082;28;20064;-52
2023/10/08 06:37:54;;;;;;;5.82;3.10;;;18.30;62.00;;;;;;5030465;28;20040;-53
2023/10/08 06:43:14;;;;;;;5.60;3.72;;;18.40;61.90;;;;;;5008469;28;20052;-50
2023/10/08 06:45:43;;;;;;;4.78;3.55;;;18.40;61.90;;;;;;5015837;28;20133;-49
2023/10/08 06:48:23;;;;;;;4.88;3.08;;;18.40;61.90;;;;;;5015703;28;20160;-51
2023/10/08 06:50:56;;;;;;;5.65;3.17;;;18.50;61.90;;;;;;5010675;28;20512;-49
2023/10/08 06:53:25;;;;;;;6.22;3.47;;;18.50;61.90;;;;;;5014383;28;20504;-53
2023/10/08 06:55:56;;;;;;;4.50;3.38;;;18.50;61.80;;;;;;5010970;28;20038;-50
2023/10/08 06:58:28;;;;;;;4.82;3.28;;;18.60;61.80;;;;;;5020237;28;20061;-51
2023/10/08 07:00:58;;;;;;;5.45;3.10;;;18.60;61.70;;;;;;5018596;28;20122;-50
2023/10/08 07:03:25;;;;;;;6.63;3.83;;;18.60;61.60;;;;;;5025924;28;20103;-52
2023/10/08 07:05:59;;;;;;;5.85;3.45;;;18.70;61.70;;;;;;5020142;28;20113;-53
2023/10/08 07:08:31;;;;;;;7.07;4.60;;;18.70;61.60;;;;;;5019001;28;20034;-52
2023/10/08 07:11:01;;;;;;;5.53;3.40;;;18.80;61.50;;;;;;5018726;28;20121;-53
2023/10/08 07:13:30;;;;;;;5.32;3.42;;;18.80;62.10;;;;;;5018434;28;20133;-49
2023/10/08 07:16:03;;;;;;;5.07;3.30;;;18.80;61.40;;;;;;5024513;28;20087;-51
2023/10/08 07:18:33;;;;;;;5.05;3.20;;;18.80;61.20;;;;;;5023336;28;20073;-55
2023/10/08 07:21:00;;;;;;;6.63;3.17;;;18.80;61.30;;;;;;5023153;28;20523;-50
2023/10/08 07:23:34;;;;;;;5.32;3.50;;;18.80;61.10;;;;;;5022203;28;20440;-54
2023/10/08 07:26:18;;;;;;;7.20;4.03;;;18.80;61.10;;;;;;5025516;28;20442;-54
2023/10/08 07:28:48;;;;;;;7.85;3.65;;;18.80;61.10;;;;;;5021007;28;20041;-52
2023/10/08 07:31:23;;;;;;;6.35;3.63;;;18.80;61.10;;;;;;5017557;28;20466;-51
2023/10/08 07:33:56;;;;;;;5.15;3.63;;;18.80;61.10;;;;;;5020593;28;20077;-53
2023/10/08 07:36:27;;;;;;;6.10;3.47;;;18.80;61.30;;;;;;5016258;28;20046;-51
2023/10/08 07:39:03;;;;;;;5.30;3.58;;;18.80;61.30;;;;;;5018913;28;20079;-53
2023/10/08 07:41:30;;;;;;;5.65;3.42;;;18.80;61.20;;;;;;5019097;28;20077;-51
2023/10/08 07:43:59;;;;;;;6.13;3.53;;;18.80;61.30;;;;;;5013818;28;20040;-55
2023/10/08 07:46:27;;;;;;;6.63;3.40;;;18.80;61.50;;;;;;5023001;28;20127;-52
2023/10/08 07:48:59;;;;;;;5.32;3.95;;;18.80;61.50;;;;;;5014254;28;20049;-50
2023/10/08 07:51:29;;;;;;;8.13;3.35;;;18.80;61.60;;;;;;5017914;28;20547;-50
2023/10/08 07:53:55;;;;;;;6.63;3.88;;;18.80;61.80;;;;;;5020737;28;20037;-51
2023/10/08 07:56:24;;;;;;;7.07;3.53;;;18.80;61.80;;;;;;5019424;28;20048;-52
2023/10/08 07:58:51;;;;;;;5.95;3.53;;;18.80;61.90;;;;;;5014286;28;20054;-51
2023/10/08 08:01:20;;;;;;;5.68;3.78;;;18.80;61.90;;;;;;5023185;28;20124;-52
2023/10/08 08:03:48;;;;;;;12.60;4.70;;;18.80;62.10;;;;;;5018945;28;20056;-48
2023/10/08 08:06:15;;;;;;;4.93;3.80;;;18.90;62.20;;;;;;5026020;28;20241;-49
2023/10/08 08:08:44;;;;;;;7.53;4.50;;;18.90;62.20;;;;;;5026475;28;20125;-51
2023/10/08 08:11:17;;;;;;;7.35;3.38;;;18.90;62.10;;;;;;5017680;28;20095;-53
2023/10/08 08:13:44;;;;;;;7.35;4.22;;;19.00;62.30;;;;;;5027921;28;20080;-50
2023/10/08 08:16:18;;;;;;;3.92;3.30;;;19.00;62.40;;;;;;5021125;28;20069;-51
2023/10/08 08:18:51;;;;;;;6.25;4.22;;;19.00;62.20;;;;;;5017291;28;20049;-51
2023/10/08 08:21:19;;;;;;;10.25;4.72;;;19.20;62.90;;;;;;5029890;28;20045;-48
2023/10/08 08:23:50;;;;;;;7.82;4.20;;;19.20;62.50;;;;;;5028811;28;20045;-51
2023/10/08 08:26:28;;;;;;;6.75;4.05;;;19.30;62.40;;;;;;5018431;28;20069;-51
2023/10/08 08:29:02;;;;;;;6.07;4.15;;;19.40;62.40;;;;;;5011095;28;20045;-53
2023/10/08 08:31:35;;;;;;;7.82;4.20;;;19.50;62.40;;;;;;5018806;28;20042;-51
2023/10/08 08:34:08;;;;;;;7.97;5.60;;;19.70;62.20;;;;;;5017255;28;20499;-53
2023/10/08 08:36:46;;;;;;;7.57;4.20;;;19.80;62.30;;;;;;5011907;28;20056;-53
2023/10/08 08:39:32;;;;;;;9.27;4.97;;;19.90;62.10;;;;;;5016299;28;20053;-52
2023/10/08 08:42:00;;;;;;;9.35;4.75;;;20.00;62.00;;;;;;5015434;28;20116;-50
2023/10/08 08:44:31;;;;;;;8.27;4.90;;;20.20;61.70;;;;;;5009450;28;20045;-49
2023/10/08 08:47:04;;;;;;;8.00;4.70;;;20.20;62.20;;;;;;5011511;28;20056;-50
2023/10/08 08:49:34;;;;;;;7.47;4.88;;;20.30;61.00;;;;;;5019214;28;20046;-53
2023/10/08 08:52:03;;;;;;;8.93;5.45;;;20.40;61.00;;;;;;5015070;28;20088;-53
2023/10/08 08:54:36;;;;;;;9.00;5.20;;;20.50;60.90;;;;;;5009268;28;20138;-53
2023/10/08 08:57:13;;;;;;;7.63;4.97;;;20.60;60.60;;;;;;5011626;28;20043;-49
2023/10/08 08:59:54;;;;;;;10.20;4.80;;;20.70;60.40;;;;;;5010136;28;20462;-54
2023/10/08 09:02:23;;;;;;;7.72;4.88;;;20.80;60.20;;;;;;5010529;28;20073;-54
2023/10/08 09:04:50;;;;;;;6.93;4.28;;;20.80;60.00;;;;;;5006153;28;20046;-49
2023/10/08 09:07:21;;;;;;;10.00;5.20;;;20.90;59.90;;;;;;5011929;28;20050;-53
2023/10/08 09:09:49;;;;;;;6.88;5.45;;;21.00;60.00;;;;;;5011305;28;20045;-49
2023/10/08 09:12:17;;;;;;;13.45;6.43;;;21.00;60.00;;;;;;5014756;28;20045;-53
2023/10/08 09:14:47;;;;;;;13.98;6.18;;;21.10;60.10;;;;;;5016793;28;20045;-51
2023/10/08 09:17:17;;;;;;;15.80;7.25;;;21.10;60.10;;;;;;5009504;28;20066;-48
2023/10/08 09:19:47;;;;;;;13.80;5.97;;;21.20;59.90;;;;;;5015221;28;20148;-54
2023/10/08 09:22:15;;;;;;;13.45;6.32;;;21.20;60.20;;;;;;5019763;28;20041;-50
2023/10/08 09:24:42;;;;;;;9.27;5.30;;;21.20;60.20;;;;;;5015113;28;20045;-48
2023/10/08 09:27:18;;;;;;;13.88;6.75;;;21.30;60.20;;;;;;5009464;28;20674;-49
2023/10/08 09:29:47;;;;;;;10.00;6.70;;;21.30;59.90;;;;;;5009503;28;20491;-52
2023/10/08 09:32:23;;;;;;;12.27;6.10;;;21.30;59.70;;;;;;5012284;28;20451;-53
2023/10/08 09:34:52;;;;;;;11.07;5.82;;;21.30;59.60;;;;;;5019196;28;20498;-49
2023/10/08 09:37:22;;;;;;;13.32;5.57;;;21.30;59.60;;;;;;5009392;28;20109;-50
2023/10/08 09:39:52;;;;;;;8.77;5.82;;;21.30;59.70;;;;;;5013400;28;20058;-51
2023/10/08 09:42:22;;;;;;;12.88;6.05;;;21.40;59.90;;;;;;5011809;28;20459;-53
2023/10/08 09:44:49;;;;;;;14.65;7.05;;;21.40;59.90;;;;;;5010402;28;20418;-52
2023/10/08 09:47:26;;;;;;;12.32;7.00;;;21.40;60.00;;;;;;5010323;28;20550;-52
2023/10/08 09:50:07;;;;;;;13.70;6.32;;;21.50;60.20;;;;;;5012090;28;20041;-52
2023/10/08 09:52:44;;;;;;;12.55;6.32;;;21.60;60.20;;;;;;5012755;28;20050;-54
2023/10/08 09:55:11;;;;;;;11.48;6.53;;;21.70;60.30;;;;;;5016187;28;20508;-53
2023/10/08 09:57:38;;;;;;;13.07;6.88;;;21.70;60.10;;;;;;5021861;28;20504;-50
2023/10/08 10:00:14;;;;;;;13.73;6.05;;;21.90;60.60;;;;;;5018892;28;20072;-50
2023/10/08 10:02:43;;;;;;;11.27;6.03;;;22.00;59.90;;;;;;5014144;28;20070;-51
2023/10/08 10:05:12;;;;;;;11.77;6.03;;;22.10;59.80;;;;;;5018098;28;20129;-54
2023/10/08 10:07:43;;;;;;;18.92;7.63;;;22.20;59.50;;;;;;5026030;28;20046;-52
2023/10/08 10:10:31;;;;;;;14.38;6.28;;;22.30;59.40;;;;;;5018665;28;20472;-53
2023/10/08 10:13:03;;;;;;;13.00;6.30;;;22.50;59.30;;;;;;5014733;28;20044;-51
2023/10/08 10:15:34;;;;;;;12.40;6.55;;;22.60;59.10;;;;;;5020864;28;20072;-50
2023/10/08 10:18:27;;;;;;;11.02;5.95;;;22.70;58.90;;;;;;5023061;28;20119;-51
2023/10/08 10:21:15;;;;;;;15.38;7.10;;;22.80;59.00;;;;;;5018530;28;20066;-51
2023/10/08 10:23:43;;;;;;;10.60;6.10;;;22.90;58.70;;;;;;5010422;28;20057;-51
2023/10/08 10:26:35;;;;;;;13.65;6.72;;;22.90;58.60;;;;;;5021338;28;20045;-52
2023/10/08 10:29:14;;;;;;;11.77;7.75;;;23.10;58.30;;;;;;5013970;28;20049;-51
2023/10/08 10:31:44;;;;;;;9.95;5.93;;;23.10;58.00;;;;;;5018462;28;20459;-50
2023/10/08 10:34:18;;;;;;;13.30;7.22;;;23.20;58.20;;;;;;5019619;28;20108;-49
2023/10/08 10:36:49;;;;;;;15.80;7.50;;;23.20;57.90;;;;;;5013827;28;20050;-52
2023/10/08 10:39:25;;;;;;;14.90;8.67;;;23.30;57.90;;;;;;5016561;28;20042;-52
2023/10/08 10:42:06;;;;;;;13.90;7.68;;;23.40;57.90;;;;;;5020105;28;20065;-49
2023/10/08 10:44:37;;;;;;;15.25;8.13;;;23.40;57.80;;;;;;5014755;28;20049;-49
2023/10/08 10:52:32;;;;;;;11.27;6.95;;;23.60;57.30;;;;;;5017650;28;20057;-50
2023/10/08 10:55:59;;;;;;;11.98;7.90;;;23.60;57.20;;;;;;5020896;28;20116;-51
2023/10/08 10:57:56;;;;;;;12.25;7.68;;;23.70;57.40;;;;;;5010137;28;20057;-51
2023/10/08 11:03:18;;;;;;;13.18;7.70;;;23.70;57.00;;;;;;4992778;28;20546;-51
2023/10/08 11:05:55;;;;;;;11.98;7.28;;;23.80;56.80;;;;;;5015292;28;20064;-51
2023/10/08 11:08:34;;;;;;;13.93;8.05;;;23.80;56.90;;;;;;5020657;28;20037;-51
2023/10/08 11:11:07;;;;;;;14.73;8.57;;;23.90;56.90;;;;;;5022843;28;20049;-51
2023/10/08 11:13:38;;;;;;;16.85;8.32;;;24.00;57.10;;;;;;5013560;28;20037;-52
2023/10/08 11:16:08;;;;;;;12.57;7.70;;;24.10;57.50;;;;;;5012439;28;20041;-51
2023/10/08 11:18:41;;;;;;;16.40;8.13;;;24.10;57.00;;;;;;5017403;28;22426;-50
2023/10/08 11:21:15;;;;;;;13.30;7.32;;;24.20;56.90;;;;;;5017633;28;20471;-52
2023/10/08 11:23:53;;;;;;;13.18;7.45;;;24.30;56.70;;;;;;5012948;28;20674;-55
2023/10/08 11:26:31;;;;;;;13.52;8.10;;;24.30;56.60;;;;;;5023426;28;20038;-51
2023/10/08 11:29:03;;;;;;;14.73;7.55;;;24.40;56.60;;;;;;5023060;28;20103;-49
2023/10/08 11:31:33;;;;;;;13.68;8.43;;;24.50;56.40;;;;;;5016572;28;20507;-51
2023/10/08 11:34:12;;;;;;;12.93;8.80;;;24.50;56.40;;;;;;5014839;28;20042;-53
2023/10/08 11:36:48;;;;;;;12.43;7.88;;;24.50;55.80;;;;;;5021192;28;20091;-51
2023/10/08 11:39:22;;;;;;;11.90;7.30;;;24.50;55.50;;;;;;5011594;28;20092;-50
2023/10/08 11:42:03;;;;;;;14.48;7.85;;;24.50;55.70;;;;;;5017166;28;20092;-50
2023/10/08 11:44:37;;;;;;;11.85;8.32;;;24.50;55.20;;;;;;5010565;28;20048;-53
2023/10/08 11:47:11;;;;;;;12.25;8.23;;;24.40;55.20;;;;;;5014707;28;20041;-52
2023/10/08 11:49:46;;;;;;;13.13;8.63;;;24.30;55.50;;;;;;5014041;28;20038;-55
2023/10/08 11:52:21;;;;;;;13.25;8.02;;;24.20;55.60;;;;;;5016703;28;20125;-54
2023/10/08 11:54:48;;;;;;;15.68;9.23;;;24.10;55.80;;;;;;5016526;28;20046;-54
2023/10/08 11:57:21;;;;;;;16.80;8.80;;;24.00;56.20;;;;;;5017287;28;20049;-55
2023/10/08 11:59:51;;;;;;;16.05;8.57;;;23.90;56.30;;;;;;5018692;28;20140;-54
2023/10/08 12:02:20;;;;;;;18.10;9.05;;;23.80;56.70;;;;;;5014584;28;20104;-52
2023/10/08 12:04:47;;;;;;;22.00;8.85;;;23.80;56.80;;;;;;5015497;28;20038;-54
2023/10/08 12:07:17;;;;;;;15.20;8.38;;;23.70;56.90;;;;;;5017174;28;20041;-54
2023/10/08 12:09:48;;;;;;;16.10;9.18;;;23.60;57.00;;;;;;5018063;28;20069;-55
2023/10/08 12:12:15;;;;;;;16.70;9.63;;;23.60;57.20;;;;;;5014616;28;20042;-54
2023/10/08 12:14:52;;;;;;;19.75;9.70;;;23.50;57.50;;;;;;5021454;28;20037;-55
2023/10/08 12:17:31;;;;;;;17.77;9.07;;;23.50;57.90;;;;;;5021224;28;20069;-54
2023/10/08 12:20:12;;;;;;;13.65;8.90;;;23.40;58.30;;;;;;5021802;28;20099;-53
2023/10/08 12:22:50;;;;;;;16.10;9.00;;;23.50;58.80;;;;;;5021122;28;20124;-55
2023/10/08 12:25:30;;;;;;;16.02;8.88;;;23.50;58.70;;;;;;5010297;28;20044;-52
2023/10/08 12:28:11;;;;;;;19.40;8.35;;;23.50;58.30;;;;;;5019749;28;20048;-54
2023/10/08 12:30:42;;;;;;;14.73;8.93;;;23.60;58.20;;;;;;5018479;28;20122;-52
2023/10/08 12:33:25;;;;;;;18.50;8.30;;;23.70;57.90;;;;;;5010631;28;20052;-55
2023/10/08 12:36:10;;;;;;;13.30;7.53;;;23.80;57.80;;;;;;5018366;28;20087;-55
2023/10/08 12:38:51;;;;;;;13.82;8.48;;;23.90;57.90;;;;;;5019859;28;20064;-55
2023/10/08 12:41:21;;;;;;;17.45;9.50;;;24.00;57.80;;;;;;5018827;28;20069;-54
2023/10/08 12:43:58;;;;;;;16.65;8.55;;;24.10;57.60;;;;;;5017031;28;20566;-55
2023/10/08 12:46:34;;;;;;;15.55;9.93;;;24.20;57.40;;;;;;5014360;28;20133;-55
2023/10/08 12:49:10;;;;;;;16.50;8.50;;;24.30;57.40;;;;;;5016745;28;20122;-54
2023/10/08 12:51:45;;;;;;;19.48;10.35;;;24.40;57.10;;;;;;5016413;28;20041;-54
2023/10/08 12:57:08;;;;;;;17.42;9.30;;;24.60;56.90;;;;;;5013336;28;20041;-55
2023/10/08 12:59:43;;;;;;;18.48;9.20;;;24.70;56.70;;;;;;5017426;28;20038;-55
2023/10/08 13:02:28;;;;;;;;;;;;;;;;;;;;;
2023/10/08 13:05:21;;;;;;;11.05;8.10;;;24.90;56.10;;;;;;5016551;28;20045;-55
2023/10/08 13:07:52;;;;;;;15.98;8.13;;;25.00;55.80;;;;;;5016949;28;21057;-55
2023/10/08 13:10:31;;;;;;;13.60;8.23;;;25.10;55.80;;;;;;5020821;28;20044;-55
2023/10/08 13:13:03;;;;;;;13.27;7.90;;;25.20;55.70;;;;;;5012863;28;20092;-55
2023/10/08 13:15:35;;;;;;;19.20;9.02;;;25.20;55.60;;;;;;5015601;28;20046;-55
2023/10/08 13:18:11;;;;;;;19.88;9.05;;;25.30;55.20;;;;;;5018912;28;20129;-56
2023/10/08 13:20:48;;;;;;;15.25;8.10;;;25.20;55.20;;;;;;5011628;28;20045;-55
2023/10/08 13:23:15;;;;;;;15.25;8.05;;;25.30;55.40;;;;;;5015563;28;20104;-55
2023/10/08 13:25:53;;;;;;;13.80;7.53;;;25.20;55.40;;;;;;5015074;28;20037;-55
2023/10/08 13:28:28;;;;;;;15.13;7.82;;;25.20;55.30;;;;;;5022246;28;20095;-54
2023/10/08 13:31:09;;;;;;;12.50;7.28;;;25.20;56.10;;;;;;5018476;28;20053;-54
2023/10/08 13:33:51;;;;;;;14.43;8.23;;;25.40;55.50;;;;;;5022398;28;20041;-54
2023/10/08 13:36:25;;;;;;;17.38;8.80;;;25.40;55.50;;;;;;5022212;28;20096;-55
2023/10/08 13:39:17;;;;;;;18.83;8.93;;;25.60;55.70;;;;;;5018042;28;20033;-53
2023/10/08 13:41:51;;;;;;;16.08;8.13;;;25.70;55.10;;;;;;5015944;28;20133;-54
2023/10/08 13:44:28;;;;;;;16.80;7.75;;;25.80;55.30;;;;;;5022452;28;20595;-55
2023/10/08 13:46:59;;;;;;;15.40;7.43;;;25.90;54.90;;;;;;5020609;28;20033;-54
2023/10/08 13:49:35;;;;;;;10.82;8.13;;;26.00;54.60;;;;;;5021081;28;20466;-52
2023/10/08 13:52:37;;;;;;;16.13;7.70;;;26.10;54.50;;;;;;5021827;28;20054;-54
2023/10/08 13:55:13;;;;;;;11.80;7.13;;;26.10;54.40;;;;;;5021464;28;20044;-53
2023/10/08 13:57:50;;;;;;;14.13;8.20;;;26.20;54.50;;;;;;5019153;28;20064;-54
2023/10/08 14:00:26;;;;;;;12.75;7.72;;;26.20;54.40;;;;;;5016724;28;20047;-55
2023/10/08 14:03:18;;;;;;;;;;;;;;;;;;;;;
2023/10/08 14:06:02;;;;;;;17.48;7.93;;;26.30;54.20;;;;;;5019007;28;20423;-55
2023/10/08 14:08:39;;;;;;;13.85;8.27;;;26.30;54.40;;;;;;5022046;28;20092;-55
2023/10/08 14:11:23;;;;;;;16.13;7.80;;;26.60;54.80;;;;;;5015710;28;20052;-54
2023/10/08 14:14:02;;;;;;;16.63;8.10;;;26.80;54.80;;;;;;5023057;28;20556;-52
2023/10/08 14:16:41;;;;;;;12.98;7.53;;;27.20;54.20;;;;;;5016937;28;20033;-55
2023/10/08 14:19:51;;;;;;;12.43;6.90;;;27.40;53.30;;;;;;5011426;28;20443;-55
2023/10/08 14:22:32;;;;;;;14.48;8.75;;;27.60;52.20;;;;;;5017376;28;20145;-55
2023/10/08 14:25:11;;;;;;;13.85;8.60;;;27.60;51.90;;;;;;5019574;28;20046;-54
2023/10/08 14:27:51;;;;;;;15.60;7.82;;;27.50;51.90;;;;;;5016706;28;20503;-54
2023/10/08 14:30:42;;;;;;;16.80;8.77;;;27.40;51.90;;;;;;5017644;28;20025;-55
2023/10/08 14:33:55;;;;;;;13.75;7.78;;;27.30;51.90;;;;;;5027853;28;20039;-54
2023/10/08 14:45:10;;;;;;;11.82;7.55;;;26.80;52.90;;;;;;5021145;28;20094;-55
2023/10/08 14:47:48;;;;;;;10.55;7.07;;;26.70;53.00;;;;;;5012163;28;20049;-54
2023/10/08 14:50:38;;;;;;;10.05;6.53;;;26.70;53.60;;;;;;5024863;28;20120;-52
2023/10/08 14:53:15;;;;;;;13.23;8.23;;;26.70;54.00;;;;;;5021302;28;20044;-54
2023/10/08 14:55:54;;;;;;;13.68;8.07;;;26.90;54.00;;;;;;5019069;28;20088;-54